sensor_id;sensor_type;location;lat;lon;timestamp;pressure;altitude;pressure_sealevel;temperature;humidity
31346;BME280;21711;49.708;18.568;2023-02-20T00:01:02;97995.94;;;2.51;100.00
31346;BME280;21711;49.708;18.568;2023-02-20T00:03:30;97996.13;;;2.43;100.00
31346;BME280;21711;49.708;18.568;2023-02-20T00:05:57;98002.34;;;2.42;100.00
31346;BME280;21711;49.708;18.568;2023-02-20T00:08:25;97991.91;;;2.48;100.00
31346;BME280;21711;49.708;18.568;2023-02-20T00:10:52;97989.69;;;2.39;100.00
31346;BME280;21711;49.708;18.568;2023-02-20T00:13:20;97985.28;;;2.39;100.00
31346;BME280;21711;49.708;18.568;2023-02-20T00:15:47;97974.22;;;2.44;100.00
31346;BME280;21711;49.708;18.568;2023-02-20T00:18:14;97963.41;;;2.33;100.00
31346;BME280;21711;49.708;18.568;2023-02-20T00:20:42;97968.03;;;2.31;100.00
31346;BME280;21711;49.708;18.568;2023-02-20T00:23:09;97959.56;;;2.36;100.00
31346;BME280;21711;49.708;18.568;2023-02-20T00:25:36;97954.97;;;2.25;100.00
31346;BME280;21711;49.708;18.568;2023-02-20T00:28:04;97952.56;;;2.36;100.00
31346;BME280;21711;49.708;18.568;2023-02-20T00:30:31;97945.50;;;2.37;100.00
31346;BME280;21711;49.708;18.568;2023-02-20T00:32:59;97948.75;;;2.39;100.00
31346;BME280;21711;49.708;18.568;2023-02-20T00:35:27;97950.13;;;2.48;100.00
31346;BME280;21711;49.708;18.568;2023-02-20T00:37:55;97953.34;;;2.44;100.00
31346;BME280;21711;49.708;18.568;2023-02-20T00:40:23;97965.41;;;2.45;100.00
31346;BME280;21711;49.708;18.568;2023-02-20T00:42:51;97969.81;;;2.31;100.00
31346;BME280;21711;49.708;18.568;2023-02-20T00:45:19;97969.44;;;2.27;100.00
31346;BME280;21711;49.708;18.568;2023-02-20T00:47:46;97966.63;;;2.15;100.00
31346;BME280;21711;49.708;18.568;2023-02-20T00:50:15;97973.63;;;2.15;100.00
31346;BME280;21711;49.708;18.568;2023-02-20T00:52:44;97968.03;;;2.18;100.00
31346;BME280;21711;49.708;18.568;2023-02-20T00:55:11;97971.44;;;2.05;100.00
31346;BME280;21711;49.708;18.568;2023-02-20T00:57:39;97969.03;;;2.17;100.00
31346;BME280;21711;49.708;18.568;2023-02-20T01:00:11;97959.19;;;2.26;100.00
31346;BME280;21711;49.708;18.568;2023-02-20T01:02:38;97959.38;;;2.24;100.00
31346;BME280;21711;49.708;18.568;2023-02-20T01:05:06;97958.59;;;2.17;100.00
31346;BME280;21711;49.708;18.568;2023-02-20T01:07:34;97955.78;;;2.05;100.00
31346;BME280;21711;49.708;18.568;2023-02-20T01:10:01;97956.56;;;2.05;100.00
31346;BME280;21711;49.708;18.568;2023-02-20T01:12:29;97965.19;;;1.99;100.00
31346;BME280;21711;49.708;18.568;2023-02-20T01:14:56;97953.34;;;1.83;100.00
31346;BME280;21711;49.708;18.568;2023-02-20T01:17:26;97954.72;;;1.79;100.00
31346;BME280;21711;49.708;18.568;2023-02-20T01:19:54;97959.75;;;1.87;100.00
31346;BME280;21711;49.708;18.568;2023-02-20T01:22:22;97952.91;;;1.73;100.00
31346;BME280;21711;49.708;18.568;2023-02-20T01:24:49;97945.28;;;1.71;100.00
31346;BME280;21711;49.708;18.568;2023-02-20T01:27:16;97960.56;;;1.81;100.00
31346;BME280;21711;49.708;18.568;2023-02-20T01:29:44;97944.72;;;1.89;100.00
31346;BME280;21711;49.708;18.568;2023-02-20T01:32:13;97940.09;;;1.91;100.00
31346;BME280;21711;49.708;18.568;2023-02-20T01:34:40;97924.84;;;2.02;100.00
31346;BME280;21711;49.708;18.568;2023-02-20T01:37:13;97925.06;;;2.00;100.00
31346;BME280;21711;49.708;18.568;2023-02-20T01:39:41;97924.03;;;2.01;100.00
31346;BME280;21711;49.708;18.568;2023-02-20T01:42:20;97923.25;;;1.87;100.00
31346;BME280;21711;49.708;18.568;2023-02-20T01:44:49;97918.84;;;1.81;100.00
31346;BME280;21711;49.708;18.568;2023-02-20T01:47:20;97918.84;;;1.81;100.00
31346;BME280;21711;49.708;18.568;2023-02-20T01:49:54;97910.19;;;1.80;100.00
31346;BME280;21711;49.708;18.568;2023-02-20T01:52:28;97911.19;;;1.73;100.00
31346;BME280;21711;49.708;18.568;2023-02-20T01:55:07;97909.38;;;1.73;100.00
31346;BME280;21711;49.708;18.568;2023-02-20T01:57:39;97916.78;;;1.69;100.00
31346;BME280;21711;49.708;18.568;2023-02-20T02:00:15;97921.81;;;1.78;100.00
31346;BME280;21711;49.708;18.568;2023-02-20T02:03:04;97917.41;;;1.72;100.00
31346;BME280;21711;49.708;18.568;2023-02-20T02:05:33;97914.59;;;1.73;100.00
31346;BME280;21711;49.708;18.568;2023-02-20T02:08:04;97900.78;;;1.93;100.00
31346;BME280;21711;49.708;18.568;2023-02-20T02:11:00;97892.72;;;2.01;100.00
31346;BME280;21711;49.708;18.568;2023-02-20T02:13:30;97883.69;;;2.04;100.00
31346;BME280;21711;49.708;18.568;2023-02-20T02:16:16;97874.88;;;2.05;100.00
31346;BME280;21711;49.708;18.568;2023-02-20T02:34:20;97859.44;;;2.03;100.00
31346;BME280;21711;49.708;18.568;2023-02-20T02:40:18;97837.34;;;1.99;100.00
31346;BME280;21711;49.708;18.568;2023-02-20T02:43:15;97834.75;;;1.86;100.00
31346;BME280;21711;49.708;18.568;2023-02-20T02:45:56;97825.53;;;1.76;100.00
31346;BME280;21711;49.708;18.568;2023-02-20T02:48:32;97830.34;;;1.73;100.00
31346;BME280;21711;49.708;18.568;2023-02-20T02:51:27;97825.91;;;1.80;100.00
31346;BME280;21711;49.708;18.568;2023-02-20T02:54:18;97813.31;;;1.77;100.00
31346;BME280;21711;49.708;18.568;2023-02-20T02:56:48;97804.47;;;1.84;100.00
31346;BME280;21711;49.708;18.568;2023-02-20T02:59:30;97801.03;;;1.91;100.00
31346;BME280;21711;49.708;18.568;2023-02-20T03:02:06;97800.25;;;1.83;100.00
31346;BME280;21711;49.708;18.568;2023-02-20T03:04:37;97805.47;;;1.83;100.00
31346;BME280;21711;49.708;18.568;2023-02-20T03:07:10;97812.47;;;1.49;100.00
31346;BME280;21711;49.708;18.568;2023-02-20T03:10:12;97812.69;;;1.61;100.00
31346;BME280;21711;49.708;18.568;2023-02-20T03:12:50;97812.28;;;1.57;100.00
31346;BME280;21711;49.708;18.568;2023-02-20T03:15:37;97815.53;;;1.66;100.00
31346;BME280;21711;49.708;18.568;2023-02-20T03:18:38;97813.50;;;1.68;100.00
31346;BME280;21711;49.708;18.568;2023-02-20T03:21:17;97810.28;;;1.73;100.00
31346;BME280;21711;49.708;18.568;2023-02-20T03:23:53;97815.91;;;1.70;100.00
31346;BME280;21711;49.708;18.568;2023-02-20T03:26:29;97809.88;;;1.69;100.00
31346;BME280;21711;49.708;18.568;2023-02-20T03:29:21;97810.31;;;1.66;100.00
31346;BME280;21711;49.708;18.568;2023-02-20T03:32:00;97813.31;;;1.63;100.00
31346;BME280;21711;49.708;18.568;2023-02-20T03:34:51;97809.06;;;1.76;100.00
31346;BME280;21711;49.708;18.568;2023-02-20T03:37:38;97805.28;;;1.78;100.00
31346;BME280;21711;49.708;18.568;2023-02-20T03:40:28;97803.25;;;1.80;100.00
31346;BME280;21711;49.708;18.568;2023-02-20T03:43:18;97792.25;;;1.78;100.00
31346;BME280;21711;49.708;18.568;2023-02-20T03:46:04;97794.63;;;1.93;100.00
31346;BME280;21711;49.708;18.568;2023-02-20T03:48:58;97793.84;;;1.86;100.00
31346;BME280;21711;49.708;18.568;2023-02-20T03:51:26;97789.81;;;1.83;100.00
31346;BME280;21711;49.708;18.568;2023-02-20T03:54:00;97791.81;;;1.81;100.00
31346;BME280;21711;49.708;18.568;2023-02-20T03:56:41;97791.63;;;1.76;100.00
31346;BME280;21711;49.708;18.568;2023-02-20T03:59:17;97802.44;;;1.87;100.00
31346;BME280;21711;49.708;18.568;2023-02-20T04:01:50;97794.03;;;1.78;100.00
31346;BME280;21711;49.708;18.568;2023-02-20T04:04:24;97795.81;;;1.77;100.00
31346;BME280;21711;49.708;18.568;2023-02-20T04:06:53;97795.25;;;1.75;100.00
31346;BME280;21711;49.708;18.568;2023-02-20T04:09:26;97795.84;;;1.70;100.00
31346;BME280;21711;49.708;18.568;2023-02-20T04:12:06;97800.06;;;1.65;100.00
31346;BME280;21711;49.708;18.568;2023-02-20T04:14:35;97796.44;;;1.73;100.00
31346;BME280;21711;49.708;18.568;2023-02-20T04:17:09;97803.06;;;1.82;100.00
31346;BME280;21711;49.708;18.568;2023-02-20T04:19:40;97808.28;;;1.89;100.00
31346;BME280;21711;49.708;18.568;2023-02-20T04:22:14;97804.66;;;1.83;100.00
31346;BME280;21711;49.708;18.568;2023-02-20T04:24:57;97799.44;;;1.83;100.00
31346;BME280;21711;49.708;18.568;2023-02-20T04:27:29;97798.22;;;1.92;100.00
31346;BME280;21711;49.708;18.568;2023-02-20T04:29:59;97790.19;;;2.01;100.00
31346;BME280;21711;49.708;18.568;2023-02-20T04:32:26;97791.63;;;1.90;100.00
31346;BME280;21711;49.708;18.568;2023-02-20T04:34:54;97786.59;;;1.81;100.00
31346;BME280;21711;49.708;18.568;2023-02-20T04:37:22;97784.00;;;1.68;100.00
31346;BME280;21711;49.708;18.568;2023-02-20T04:39:52;97774.78;;;1.58;100.00
31346;BME280;21711;49.708;18.568;2023-02-20T04:42:20;97772.59;;;1.49;100.00
31346;BME280;21711;49.708;18.568;2023-02-20T04:44:48;97772.19;;;1.45;100.00
31346;BME280;21711;49.708;18.568;2023-02-20T04:47:17;97778.81;;;1.41;100.00
31346;BME280;21711;49.708;18.568;2023-02-20T04:49:44;97774.78;;;1.25;100.00
31346;BME280;21711;49.708;18.568;2023-02-20T04:52:16;97773.38;;;1.22;100.00
31346;BME280;21711;49.708;18.568;2023-02-20T04:54:44;97775.38;;;1.20;100.00
31346;BME280;21711;49.708;18.568;2023-02-20T04:57:13;97784.00;;;1.14;100.00
31346;BME280;21711;49.708;18.568;2023-02-20T04:59:41;97770.97;;;1.14;100.00
31346;BME280;21711;49.708;18.568;2023-02-20T05:02:10;97763.34;;;1.19;100.00
31346;BME280;21711;49.708;18.568;2023-02-20T05:04:37;97763.34;;;1.26;100.00
31346;BME280;21711;49.708;18.568;2023-02-20T05:07:05;97766.16;;;1.17;100.00
31346;BME280;21711;49.708;18.568;2023-02-20T05:09:32;97755.53;;;1.33;100.00
31346;BME280;21711;49.708;18.568;2023-02-20T05:11:59;97755.34;;;1.48;100.00
31346;BME280;21711;49.708;18.568;2023-02-20T05:14:26;97751.72;;;1.35;100.00
31346;BME280;21711;49.708;18.568;2023-02-20T05:16:53;97772.41;;;1.43;100.00
31346;BME280;21711;49.708;18.568;2023-02-20T05:19:21;97764.16;;;1.40;100.00
31346;BME280;21711;49.708;18.568;2023-02-20T05:21:48;97771.78;;;1.41;100.00
31346;BME280;21711;49.708;18.568;2023-02-20T05:24:34;97764.75;;;1.28;100.00
31346;BME280;21711;49.708;18.568;2023-02-20T05:27:01;97752.75;;;1.41;100.00
31346;BME280;21711;49.708;18.568;2023-02-20T05:29:29;97745.13;;;1.46;100.00
31346;BME280;21711;49.708;18.568;2023-02-20T05:31:56;97741.06;;;1.64;100.00
31346;BME280;21711;49.708;18.568;2023-02-20T05:34:23;97739.09;;;1.52;100.00
31346;BME280;21711;49.708;18.568;2023-02-20T05:36:53;97740.09;;;1.58;100.00
31346;BME280;21711;49.708;18.568;2023-02-20T05:39:20;97745.31;;;1.65;100.00
31346;BME280;21711;49.708;18.568;2023-02-20T05:41:47;97744.09;;;1.81;100.00
31346;BME280;21711;49.708;18.568;2023-02-20T05:44:15;97757.13;;;1.67;100.00
31346;BME280;21711;49.708;18.568;2023-02-20T05:46:42;97764.97;;;1.61;100.00
31346;BME280;21711;49.708;18.568;2023-02-20T05:49:10;97769.16;;;1.82;100.00
31346;BME280;21711;49.708;18.568;2023-02-20T05:51:38;97774.19;;;1.77;100.00
31346;BME280;21711;49.708;18.568;2023-02-20T05:54:05;97773.75;;;1.73;100.00
31346;BME280;21711;49.708;18.568;2023-02-20T05:56:33;97768.97;;;1.70;100.00
31346;BME280;21711;49.708;18.568;2023-02-20T05:59:01;97774.56;;;1.87;100.00
31346;BME280;21711;49.708;18.568;2023-02-20T06:01:30;97773.34;;;1.96;100.00
31346;BME280;21711;49.708;18.568;2023-02-20T06:03:58;97769.72;;;1.97;100.00
31346;BME280;21711;49.708;18.568;2023-02-20T06:06:38;97777.56;;;1.91;100.00
31346;BME280;21711;49.708;18.568;2023-02-20T06:09:08;97770.34;;;2.00;100.00
31346;BME280;21711;49.708;18.568;2023-02-20T06:11:39;97764.31;;;1.92;100.00
31346;BME280;21711;49.708;18.568;2023-02-20T06:14:06;97778.75;;;2.08;100.00
31346;BME280;21711;49.708;18.568;2023-02-20T06:16:34;97780.13;;;2.18;100.00
31346;BME280;21711;49.708;18.568;2023-02-20T06:19:02;97783.28;;;2.33;100.00
31346;BME280;21711;49.708;18.568;2023-02-20T06:21:31;97786.03;;;2.45;100.00
31346;BME280;21711;49.708;18.568;2023-02-20T06:24:02;97782.06;;;2.36;100.00
31346;BME280;21711;49.708;18.568;2023-02-20T06:26:29;97792.31;;;2.31;100.00
31346;BME280;21711;49.708;18.568;2023-02-20T06:28:56;97796.16;;;2.28;100.00
31346;BME280;21711;49.708;18.568;2023-02-20T06:31:27;97798.88;;;2.54;100.00
31346;BME280;21711;49.708;18.568;2023-02-20T06:33:54;97789.22;;;2.54;100.00
31346;BME280;21711;49.708;18.568;2023-02-20T06:36:30;97793.28;;;2.89;100.00
31346;BME280;21711;49.708;18.568;2023-02-20T06:38:58;97799.38;;;2.76;100.00
31346;BME280;21711;49.708;18.568;2023-02-20T06:41:26;97789.81;;;2.63;100.00
31346;BME280;21711;49.708;18.568;2023-02-20T06:43:53;97798.78;;;2.81;100.00
31346;BME280;21711;49.708;18.568;2023-02-20T06:46:21;97790.28;;;2.85;100.00
31346;BME280;21711;49.708;18.568;2023-02-20T06:48:56;97790.88;;;2.87;100.00
31346;BME280;21711;49.708;18.568;2023-02-20T06:51:30;97795.56;;;2.79;100.00
31346;BME280;21711;49.708;18.568;2023-02-20T06:53:58;97789.09;;;2.81;100.00
31346;BME280;21711;49.708;18.568;2023-02-20T06:56:29;97779.78;;;2.99;100.00
31346;BME280;21711;49.708;18.568;2023-02-20T06:58:57;97791.66;;;3.27;100.00
31346;BME280;21711;49.708;18.568;2023-02-20T07:01:30;97806.78;;;3.50;100.00
31346;BME280;21711;49.708;18.568;2023-02-20T07:03:58;97794.13;;;3.47;100.00
31346;BME280;21711;49.708;18.568;2023-02-20T07:06:27;97790.00;;;3.84;100.00
31346;BME280;21711;49.708;18.568;2023-02-20T07:08:54;97799.69;;;4.20;100.00
31346;BME280;21711;49.708;18.568;2023-02-20T07:11:22;97783.44;;;3.74;100.00
31346;BME280;21711;49.708;18.568;2023-02-20T07:13:51;97792.88;;;4.57;100.00
31346;BME280;21711;49.708;18.568;2023-02-20T07:16:18;97790.38;;;5.23;100.00
31346;BME280;21711;49.708;18.568;2023-02-20T07:18:45;97794.13;;;5.16;100.00
31346;BME280;21711;49.708;18.568;2023-02-20T07:21:13;97785.31;;;5.10;100.00
31346;BME280;21711;49.708;18.568;2023-02-20T07:23:42;97780.16;;;4.72;100.00
31346;BME280;21711;49.708;18.568;2023-02-20T07:26:22;97776.47;;;5.23;100.00
31346;BME280;21711;49.708;18.568;2023-02-20T07:28:51;97775.94;;;5.02;100.00
31346;BME280;21711;49.708;18.568;2023-02-20T07:31:20;97783.75;;;5.21;100.00
31346;BME280;21711;49.708;18.568;2023-02-20T07:33:48;97780.13;;;5.34;100.00
31346;BME280;21711;49.708;18.568;2023-02-20T07:36:15;97783.28;;;5.12;100.00
31346;BME280;21711;49.708;18.568;2023-02-20T07:38:55;97777.41;;;4.67;100.00
31346;BME280;21711;49.708;18.568;2023-02-20T07:41:27;97784.31;;;4.80;100.00
31346;BME280;21711;49.708;18.568;2023-02-20T07:43:58;97780.09;;;5.22;100.00
31346;BME280;21711;49.708;18.568;2023-02-20T07:46:26;97791.66;;;5.33;100.00
31346;BME280;21711;49.708;18.568;2023-02-20T07:48:53;97785.94;;;5.24;100.00
31346;BME280;21711;49.708;18.568;2023-02-20T07:51:20;97788.00;;;5.46;100.00
31346;BME280;21711;49.708;18.568;2023-02-20T07:53:49;97771.13;;;5.42;100.00
31346;BME280;21711;49.708;18.568;2023-02-20T07:56:17;97761.13;;;5.74;100.00
31346;BME280;21711;49.708;18.568;2023-02-20T07:58:46;97764.41;;;5.93;100.00
31346;BME280;21711;49.708;18.568;2023-02-20T08:01:14;97764.09;;;6.14;100.00
31346;BME280;21711;49.708;18.568;2023-02-20T08:03:41;97776.06;;;5.86;100.00
31346;BME280;21711;49.708;18.568;2023-02-20T08:06:09;97768.19;;;6.10;100.00
31346;BME280;21711;49.708;18.568;2023-02-20T08:08:36;97753.44;;;6.21;100.00
31346;BME280;21711;49.708;18.568;2023-02-20T08:11:05;97755.44;;;6.13;100.00
31346;BME280;21711;49.708;18.568;2023-02-20T08:13:37;97756.22;;;5.54;100.00
31346;BME280;21711;49.708;18.568;2023-02-20T08:16:04;97749.47;;;5.46;100.00
31346;BME280;21711;49.708;18.568;2023-02-20T08:18:32;97733.28;;;5.37;100.00
31346;BME280;21711;49.708;18.568;2023-02-20T08:20:59;97731.94;;;5.47;100.00
31346;BME280;21711;49.708;18.568;2023-02-20T08:23:26;97727.78;;;5.39;100.00
31346;BME280;21711;49.708;18.568;2023-02-20T08:25:54;97730.66;;;5.49;100.00
31346;BME280;21711;49.708;18.568;2023-02-20T08:28:22;97727.34;;;5.66;100.00
31346;BME280;21711;49.708;18.568;2023-02-20T08:30:49;97716.75;;;5.37;100.00
31346;BME280;21711;49.708;18.568;2023-02-20T08:33:17;97730.41;;;5.63;100.00
31346;BME280;21711;49.708;18.568;2023-02-20T08:35:44;97723.91;;;5.89;100.00
31346;BME280;21711;49.708;18.568;2023-02-20T08:38:33;97714.66;;;5.99;100.00
31346;BME280;21711;49.708;18.568;2023-02-20T08:41:07;97719.41;;;6.55;100.00
31346;BME280;21711;49.708;18.568;2023-02-20T08:43:37;97715.06;;;6.31;100.00
31346;BME280;21711;49.708;18.568;2023-02-20T08:46:06;97707.69;;;6.04;100.00
31346;BME280;21711;49.708;18.568;2023-02-20T08:48:34;97698.25;;;6.32;100.00
31346;BME280;21711;49.708;18.568;2023-02-20T08:51:03;97703.09;;;6.24;100.00
31346;BME280;21711;49.708;18.568;2023-02-20T08:53:33;97704.75;;;5.89;100.00
31346;BME280;21711;49.708;18.568;2023-02-20T08:56:00;97694.13;;;5.96;100.00
31346;BME280;21711;49.708;18.568;2023-02-20T08:58:28;97692.47;;;6.30;100.00
31346;BME280;21711;49.708;18.568;2023-02-20T09:00:55;97700.28;;;6.42;100.00
31346;BME280;21711;49.708;18.568;2023-02-20T09:03:23;97691.28;;;6.84;100.00
31346;BME280;21711;49.708;18.568;2023-02-20T09:05:51;97687.59;;;6.68;100.00
31346;BME280;21711;49.708;18.568;2023-02-20T09:08:18;97686.47;;;7.10;100.00
31346;BME280;21711;49.708;18.568;2023-02-20T09:10:46;97681.34;;;7.38;100.00
31346;BME280;21711;49.708;18.568;2023-02-20T09:13:13;97699.47;;;8.19;100.00
31346;BME280;21711;49.708;18.568;2023-02-20T09:15:40;97674.66;;;7.92;100.00
31346;BME280;21711;49.708;18.568;2023-02-20T09:18:11;97676.38;;;8.26;100.00
31346;BME280;21711;49.708;18.568;2023-02-20T09:20:40;97661.69;;;8.58;100.00
31346;BME280;21711;49.708;18.568;2023-02-20T09:23:07;97667.31;;;8.16;100.00
31346;BME280;21711;49.708;18.568;2023-02-20T09:25:35;97655.38;;;8.09;100.00
31346;BME280;21711;49.708;18.568;2023-02-20T09:28:03;97657.63;;;7.55;100.00
31346;BME280;21711;49.708;18.568;2023-02-20T09:30:30;97652.66;;;7.59;100.00
31346;BME280;21711;49.708;18.568;2023-02-20T09:32:58;97649.44;;;7.74;100.00
31346;BME280;21711;49.708;18.568;2023-02-20T09:35:29;97654.72;;;7.74;100.00
31346;BME280;21711;49.708;18.568;2023-02-20T09:37:57;97636.31;;;7.34;100.00
31346;BME280;21711;49.708;18.568;2023-02-20T09:40:29;97633.06;;;6.93;100.00
31346;BME280;21711;49.708;18.568;2023-02-20T09:49:18;97619.25;;;6.68;100.00
31346;BME280;21711;49.708;18.568;2023-02-20T09:51:56;97627.84;;;6.47;100.00
31346;BME280;21711;49.708;18.568;2023-02-20T09:54:40;97619.97;;;6.47;100.00
31346;BME280;21711;49.708;18.568;2023-02-20T09:57:23;97622.66;;;6.35;100.00
31346;BME280;21711;49.708;18.568;2023-02-20T10:02:38;97618.34;;;6.28;100.00
31346;BME280;21711;49.708;18.568;2023-02-20T10:05:23;97610.50;;;6.16;100.00
31346;BME280;21711;49.708;18.568;2023-02-20T10:07:52;97604.84;;;6.08;100.00
31346;BME280;21711;49.708;18.568;2023-02-20T10:10:30;97611.44;;;6.10;100.00
31346;BME280;21711;49.708;18.568;2023-02-20T10:24:43;97578.78;;;5.77;100.00
31346;BME280;21711;49.708;18.568;2023-02-20T10:30:04;97568.31;;;6.06;100.00
31346;BME280;21711;49.708;18.568;2023-02-20T10:32:44;97563.31;;;5.92;100.00
31346;BME280;21711;49.708;18.568;2023-02-20T10:35:49;97554.88;;;5.90;100.00
31346;BME280;21711;49.708;18.568;2023-02-20T10:38:24;97569.09;;;5.77;100.00
31346;BME280;21711;49.708;18.568;2023-02-20T10:47:39;97547.19;;;6.47;100.00
31346;BME280;21711;49.708;18.568;2023-02-20T10:50:24;97537.63;;;6.75;100.00
31346;BME280;21711;49.708;18.568;2023-02-20T10:53:32;97541.53;;;6.73;100.00
31346;BME280;21711;49.708;18.568;2023-02-20T10:59:19;97535.41;;;6.67;100.00
31346;BME280;21711;49.708;18.568;2023-02-20T11:01:54;97529.53;;;6.60;100.00
31346;BME280;21711;49.708;18.568;2023-02-20T11:04:29;97523.31;;;6.66;100.00
31346;BME280;21711;49.708;18.568;2023-02-20T11:07:13;97513.75;;;6.60;100.00
31346;BME280;21711;49.708;18.568;2023-02-20T11:09:40;97509.06;;;6.44;100.00
31346;BME280;21711;49.708;18.568;2023-02-20T11:12:31;97515.97;;;6.85;100.00
31346;BME280;21711;49.708;18.568;2023-02-20T11:15:07;97509.34;;;6.82;100.00
31346;BME280;21711;49.708;18.568;2023-02-20T11:17:38;97509.19;;;6.72;100.00
31346;BME280;21711;49.708;18.568;2023-02-20T11:23:02;97492.41;;;6.73;100.00
31346;BME280;21711;49.708;18.568;2023-02-20T11:25:34;97497.66;;;6.73;100.00
31346;BME280;21711;49.708;18.568;2023-02-20T11:28:25;97473.38;;;6.66;100.00
31346;BME280;21711;49.708;18.568;2023-02-20T11:31:05;97480.59;;;6.76;100.00
31346;BME280;21711;49.708;18.568;2023-02-20T11:33:45;97471.13;;;6.57;100.00
31346;BME280;21711;49.708;18.568;2023-02-20T11:36:24;97464.84;;;6.76;100.00
31346;BME280;21711;49.708;18.568;2023-02-20T11:39:02;97456.78;;;6.82;100.00
31346;BME280;21711;49.708;18.568;2023-02-20T11:41:36;97451.75;;;6.81;100.00
31346;BME280;21711;49.708;18.568;2023-02-20T11:44:24;97473.50;;;6.76;100.00
31346;BME280;21711;49.708;18.568;2023-02-20T11:47:25;97457.44;;;6.95;100.00
31346;BME280;21711;49.708;18.568;2023-02-20T11:50:18;97463.13;;;6.87;100.00
31346;BME280;21711;49.708;18.568;2023-02-20T11:53:02;97454.09;;;7.00;100.00
31346;BME280;21711;49.708;18.568;2023-02-20T11:55:34;97438.00;;;7.18;100.00
31346;BME280;21711;49.708;18.568;2023-02-20T11:58:02;97430.56;;;7.37;100.00
31346;BME280;21711;49.708;18.568;2023-02-20T12:00:46;97439.91;;;7.50;100.00
31346;BME280;21711;49.708;18.568;2023-02-20T12:03:24;97456.69;;;7.72;100.00
31346;BME280;21711;49.708;18.568;2023-02-20T12:05:52;97449.81;;;7.66;100.00
31346;BME280;21711;49.708;18.568;2023-02-20T12:11:18;97398.38;;;7.25;100.00
31346;BME280;21711;49.708;18.568;2023-02-20T12:13:48;97392.75;;;7.16;100.00
31346;BME280;21711;49.708;18.568;2023-02-20T12:17:15;97397.09;;;7.28;100.00
31346;BME280;21711;49.708;18.568;2023-02-20T12:22:35;97384.81;;;7.39;100.00
31346;BME280;21711;49.708;18.568;2023-02-20T12:28:39;97354.53;;;8.01;100.00
31346;BME280;21711;49.708;18.568;2023-02-20T12:46:32;97287.78;;;7.85;100.00
31346;BME280;21711;49.708;18.568;2023-02-20T12:55:28;97297.53;;;8.38;100.00
31346;BME280;21711;49.708;18.568;2023-02-20T13:00:54;97288.81;;;8.27;100.00
31346;BME280;21711;49.708;18.568;2023-02-20T13:03:56;97287.88;;;8.54;100.00
31346;BME280;21711;49.708;18.568;2023-02-20T13:06:41;97273.81;;;8.33;100.00
31346;BME280;21711;49.708;18.568;2023-02-20T13:11:42;97283.03;;;8.36;100.00
31346;BME280;21711;49.708;18.568;2023-02-20T13:14:17;97284.22;;;8.55;100.00
31346;BME280;21711;49.708;18.568;2023-02-20T13:19:38;97279.47;;;8.58;100.00
31346;BME280;21711;49.708;18.568;2023-02-20T13:22:06;97293.78;;;8.93;100.00
31346;BME280;21711;49.708;18.568;2023-02-20T13:24:38;97288.38;;;8.46;100.00
31346;BME280;21711;49.708;18.568;2023-02-20T13:27:08;97298.28;;;8.82;100.00
31346;BME280;21711;49.708;18.568;2023-02-20T13:30:19;97282.13;;;8.68;100.00
31346;BME280;21711;49.708;18.568;2023-02-20T13:32:47;97290.47;;;8.49;100.00
31346;BME280;21711;49.708;18.568;2023-02-20T13:38:17;97269.38;;;8.44;100.00
31346;BME280;21711;49.708;18.568;2023-02-20T13:41:04;97243.59;;;8.51;100.00
31346;BME280;21711;49.708;18.568;2023-02-20T13:43:39;97241.72;;;8.52;100.00
31346;BME280;21711;49.708;18.568;2023-02-20T13:51:27;97240.28;;;9.13;100.00
31346;BME280;21711;49.708;18.568;2023-02-20T13:54:17;97242.16;;;9.18;100.00
31346;BME280;21711;49.708;18.568;2023-02-20T13:56:59;97217.56;;;9.38;100.00
31346;BME280;21711;49.708;18.568;2023-02-20T13:59:32;97228.13;;;9.38;100.00
31346;BME280;21711;49.708;18.568;2023-02-20T14:02:19;97202.78;;;9.47;100.00
31346;BME280;21711;49.708;18.568;2023-02-20T14:05:00;97206.44;;;9.62;100.00
31346;BME280;21711;49.708;18.568;2023-02-20T14:07:37;97193.25;;;9.62;100.00
31346;BME280;21711;49.708;18.568;2023-02-20T14:10:34;97183.78;;;9.45;100.00
31346;BME280;21711;49.708;18.568;2023-02-20T14:13:14;97190.94;;;9.29;100.00
31346;BME280;21711;49.708;18.568;2023-02-20T14:15:58;97184.34;;;9.21;100.00
31346;BME280;21711;49.708;18.568;2023-02-20T14:18:28;97173.28;;;9.25;100.00
31346;BME280;21711;49.708;18.568;2023-02-20T14:21:16;97147.44;;;9.11;100.00
31346;BME280;21711;49.708;18.568;2023-02-20T14:23:47;97145.03;;;9.20;100.00
31346;BME280;21711;49.708;18.568;2023-02-20T14:26:31;97127.88;;;9.23;100.00
31346;BME280;21711;49.708;18.568;2023-02-20T14:28:59;97116.56;;;9.22;100.00
31346;BME280;21711;49.708;18.568;2023-02-20T14:31:32;97099.63;;;9.39;100.00
31346;BME280;21711;49.708;18.568;2023-02-20T14:37:33;97092.31;;;9.04;100.00
31346;BME280;21711;49.708;18.568;2023-02-20T14:40:21;97084.88;;;9.12;100.00
31346;BME280;21711;49.708;18.568;2023-02-20T14:42:50;97065.13;;;9.09;100.00
31346;BME280;21711;49.708;18.568;2023-02-20T14:45:25;97065.94;;;8.84;100.00
31346;BME280;21711;49.708;18.568;2023-02-20T14:47:55;97061.72;;;9.03;100.00
31346;BME280;21711;49.708;18.568;2023-02-20T14:50:33;97048.53;;;8.88;100.00
31346;BME280;21711;49.708;18.568;2023-02-20T14:53:18;97050.94;;;8.74;100.00
31346;BME280;21711;49.708;18.568;2023-02-20T14:55:49;97044.56;;;8.90;100.00
31346;BME280;21711;49.708;18.568;2023-02-20T14:58:20;97056.44;;;8.88;100.00
31346;BME280;21711;49.708;18.568;2023-02-20T15:00:49;97060.66;;;8.84;100.00
31346;BME280;21711;49.708;18.568;2023-02-20T15:03:26;97070.44;;;8.78;100.00
31346;BME280;21711;49.708;18.568;2023-02-20T15:06:01;97080.72;;;8.90;100.00
31346;BME280;21711;49.708;18.568;2023-02-20T15:08:35;97070.94;;;9.06;100.00